Time;durP1;ratioP1;P1;durP2;ratioP2;P2;SDS_P1;SDS_P2;PMS_P1;PMS_P2;Temp;Humidity;BMP_temperature;BMP_pressure;BME280_temperature;BME280_humidity;BME280_pressure;Samples;Min_cycle;Max_cycle;Signal;HPM_P1;HPM_P2
2022/09/24 00:00:51;;;;;;;14.35;11.68;;;15.70;99.90;;;;;;5065199;28;20024;-73
2022/09/24 00:03:18;;;;;;;14.70;11.80;;;15.70;99.90;;;;;;5063859;28;20021;-74
2022/09/24 00:05:45;;;;;;;13.02;10.65;;;15.70;99.90;;;;;;5065690;28;20056;-74
2022/09/24 00:08:12;;;;;;;14.85;11.23;;;15.60;99.90;;;;;;5068488;28;20040;-74
2022/09/24 00:10:39;;;;;;;14.13;10.35;;;15.60;99.90;;;;;;5068095;28;20508;-74
2022/09/24 00:13:11;;;;;;;18.23;10.18;;;15.60;99.90;;;;;;5072031;28;20311;-74
2022/09/24 00:15:42;;;;;;;21.10;10.07;;;15.60;99.90;;;;;;5070850;28;20078;-74
2022/09/24 00:18:10;;;;;;;16.02;10.05;;;15.60;99.90;;;;;;5074739;28;20052;-73
2022/09/24 00:20:38;;;;;;;11.52;8.85;;;15.60;99.90;;;;;;5074160;28;20112;-73
2022/09/24 00:23:05;;;;;;;11.88;9.35;;;15.60;99.90;;;;;;5062486;28;20566;-73
2022/09/24 00:28:16;;;;;;;12.68;9.05;;;15.60;99.90;;;;;;5061316;28;20489;-73
2022/09/24 00:30:43;;;;;;;14.68;9.05;;;15.60;99.90;;;;;;5064683;28;20024;-73
2022/09/24 00:33:10;;;;;;;13.80;9.70;;;15.60;99.90;;;;;;5068134;28;20032;-73
2022/09/24 00:35:40;;;;;;;12.73;9.70;;;15.60;99.90;;;;;;5064298;28;20032;-73
2022/09/24 00:38:06;;;;;;;13.00;9.95;;;15.60;99.90;;;;;;5066607;28;20028;-73
2022/09/24 00:40:34;;;;;;;14.40;10.23;;;15.60;99.90;;;;;;5067738;28;20032;-74
2022/09/24 00:43:00;;;;;;;16.80;11.70;;;15.60;99.90;;;;;;5067997;28;20020;-74
2022/09/24 00:45:29;;;;;;;18.60;10.90;;;15.60;99.90;;;;;;5072924;28;20043;-74
2022/09/24 00:47:57;;;;;;;14.77;11.23;;;15.60;99.90;;;;;;5071516;28;20377;-74
2022/09/24 00:50:30;;;;;;;13.00;10.80;;;15.60;99.90;;;;;;5076754;28;20020;-75
2022/09/24 00:53:04;;;;;;;14.00;11.05;;;15.60;99.90;;;;;;5078760;28;20053;-74
2022/09/24 00:55:32;;;;;;;16.70;11.02;;;15.70;99.90;;;;;;5066030;28;20029;-74
2022/09/24 00:58:02;;;;;;;11.32;9.98;;;15.70;99.90;;;;;;5061258;28;20124;-74
2022/09/24 01:00:28;;;;;;;19.67;12.17;;;15.70;99.90;;;;;;5063430;28;20029;-74
2022/09/24 01:03:00;;;;;;;15.70;11.93;;;15.70;99.90;;;;;;5064309;28;20024;-75
2022/09/24 01:05:27;;;;;;;24.20;12.63;;;15.70;99.90;;;;;;5064835;28;20473;-75
2022/09/24 01:07:53;;;;;;;15.40;11.85;;;15.70;99.90;;;;;;5067263;28;20137;-75
2022/09/24 01:13:54;;;;;;;20.88;11.43;;;15.70;99.90;;;;;;5069017;28;20074;-75
2022/09/24 01:16:39;;;;;;;16.65;11.13;;;15.70;99.90;;;;;;5048431;28;20063;-74
2022/09/24 01:19:13;;;;;;;13.93;10.55;;;15.60;99.90;;;;;;5077134;28;20205;-75
2022/09/24 01:21:48;;;;;;;14.75;11.13;;;15.60;99.90;;;;;;5075446;28;20026;-74
2022/09/24 01:24:23;;;;;;;14.48;10.43;;;15.60;99.90;;;;;;5074671;28;20029;-74
2022/09/24 01:27:28;;;;;;;19.77;11.32;;;15.50;99.90;;;;;;5075093;28;20023;-74
2022/09/24 01:30:05;;;;;;;13.35;9.90;;;15.50;99.90;;;;;;5061977;28;20116;-74
2022/09/24 01:32:48;;;;;;;19.65;11.70;;;15.40;99.90;;;;;;5065757;28;20469;-74
2022/09/24 01:35:40;;;;;;;16.17;10.98;;;15.40;99.90;;;;;;5072068;28;20084;-74
2022/09/24 01:38:28;;;;;;;17.95;11.95;;;15.40;99.90;;;;;;5071016;28;20517;-75
2022/09/24 01:40:57;;;;;;;17.77;12.77;;;15.40;99.90;;;;;;5071119;28;20071;-74
2022/09/24 01:43:26;;;;;;;19.42;11.63;;;15.40;99.90;;;;;;5076077;28;20031;-74
2022/09/24 01:45:58;;;;;;;18.02;12.07;;;15.40;99.90;;;;;;5073581;28;20130;-74
2022/09/24 01:48:25;;;;;;;12.43;11.07;;;15.40;99.90;;;;;;5077725;28;20467;-74
2022/09/24 01:51:07;;;;;;;15.85;11.60;;;15.40;99.90;;;;;;5077148;28;20021;-74
2022/09/24 01:53:46;;;;;;;20.25;10.80;;;15.40;99.90;;;;;;5069265;28;20025;-74
2022/09/24 01:56:30;;;;;;;15.43;11.18;;;15.40;99.90;;;;;;5061860;28;20039;-74
2022/09/24 01:59:13;;;;;;;13.30;10.85;;;15.30;99.90;;;;;;5063702;28;20021;-74
2022/09/24 02:01:51;;;;;;;12.18;9.73;;;15.30;99.90;;;;;;5071930;28;20040;-74
2022/09/24 02:04:19;;;;;;;20.80;12.63;;;15.40;99.90;;;;;;5067512;28;20504;-74
2022/09/24 02:07:00;;;;;;;13.80;11.35;;;15.30;99.90;;;;;;5063228;28;20366;-74
2022/09/24 02:09:35;;;;;;;17.58;12.23;;;15.30;99.90;;;;;;5078376;28;20464;-74
2022/09/24 02:12:08;;;;;;;15.65;11.20;;;15.30;99.90;;;;;;5072700;28;20561;-73
2022/09/24 02:14:41;;;;;;;20.52;13.27;;;15.40;99.90;;;;;;5071628;28;20024;-75
2022/09/24 02:17:09;;;;;;;19.70;12.48;;;15.40;99.90;;;;;;5074882;28;20032;-74
2022/09/24 02:19:37;;;;;;;12.88;11.27;;;15.40;99.90;;;;;;5060394;28;20473;-75
2022/09/24 02:22:06;;;;;;;18.40;11.23;;;15.40;99.90;;;;;;5067559;28;20078;-74
2022/09/24 02:24:45;;;;;;;15.55;11.43;;;15.40;99.90;;;;;;5070095;28;20154;-74
2022/09/24 02:27:11;;;;;;;14.88;11.30;;;15.40;99.90;;;;;;5065494;28;20144;-74
2022/09/24 02:29:37;;;;;;;13.88;11.13;;;15.30;99.90;;;;;;5066769;28;20539;-73
2022/09/24 02:32:05;;;;;;;14.38;11.77;;;15.30;99.90;;;;;;5073151;28;20020;-74
2022/09/24 02:34:47;;;;;;;15.52;10.50;;;15.30;99.90;;;;;;5068826;28;20025;-74
2022/09/24 02:37:15;;;;;;;12.65;11.10;;;15.30;99.90;;;;;;5075073;28;20083;-73
2022/09/24 02:39:41;;;;;;;14.35;11.25;;;15.40;99.90;;;;;;5073025;28;20017;-74
2022/09/24 02:42:10;;;;;;;18.30;12.38;;;15.30;99.90;;;;;;5077161;28;20074;-75
2022/09/24 02:44:36;;;;;;;18.02;11.95;;;15.40;99.90;;;;;;5061435;28;20047;-75
2022/09/24 02:47:03;;;;;;;15.63;12.48;;;15.40;99.90;;;;;;5057778;28;20051;-74
2022/09/24 02:49:29;;;;;;;27.00;13.85;;;15.40;99.90;;;;;;5062012;28;20079;-75
2022/09/24 02:51:55;;;;;;;17.55;11.73;;;15.40;99.90;;;;;;5061018;28;20021;-75
2022/09/24 02:54:21;;;;;;;16.08;12.15;;;15.30;99.90;;;;;;5064745;28;20020;-75
2022/09/24 02:56:47;;;;;;;18.77;11.93;;;15.30;99.90;;;;;;5061897;28;20070;-74
2022/09/24 02:59:13;;;;;;;19.48;11.52;;;15.40;99.90;;;;;;5067146;28;20034;-75
2022/09/24 03:01:39;;;;;;;12.18;10.90;;;15.40;99.90;;;;;;5067007;28;20040;-74
2022/09/24 03:04:05;;;;;;;18.30;11.05;;;15.30;99.90;;;;;;5068758;28;20021;-73
2022/09/24 03:06:32;;;;;;;16.38;11.77;;;15.30;99.90;;;;;;5071617;28;20070;-72
2022/09/24 03:08:59;;;;;;;14.82;11.80;;;15.30;99.90;;;;;;5082225;28;20884;-73
2022/09/24 03:11:25;;;;;;;14.05;10.77;;;15.30;99.90;;;;;;5072169;28;20028;-74
2022/09/24 03:13:51;;;;;;;15.93;12.02;;;15.30;99.90;;;;;;5071900;28;20024;-73
2022/09/24 03:16:18;;;;;;;16.27;11.82;;;15.30;99.90;;;;;;5074621;28;20469;-74
2022/09/24 03:18:46;;;;;;;18.17;10.50;;;15.30;99.90;;;;;;5059949;28;20052;-74
2022/09/24 03:21:13;;;;;;;16.25;11.13;;;15.30;99.90;;;;;;5059109;28;20029;-74
2022/09/24 03:23:40;;;;;;;15.68;11.45;;;15.30;99.90;;;;;;5061701;28;20024;-74
2022/09/24 03:26:06;;;;;;;15.40;11.13;;;15.30;99.90;;;;;;5065722;28;20020;-74
2022/09/24 03:28:32;;;;;;;15.95;12.05;;;15.30;99.90;;;;;;5066379;28;20408;-74
2022/09/24 03:31:00;;;;;;;20.55;11.38;;;15.30;99.90;;;;;;5074337;28;20024;-74
2022/09/24 03:33:40;;;;;;;12.05;10.75;;;15.30;99.90;;;;;;5073253;28;20085;-74
2022/09/24 03:36:24;;;;;;;17.15;11.65;;;15.30;99.90;;;;;;5075414;28;20041;-74
2022/09/24 03:38:56;;;;;;;20.92;11.30;;;15.30;99.90;;;;;;5070983;28;20031;-74
2022/09/24 03:41:24;;;;;;;22.48;11.45;;;15.30;99.90;;;;;;5067665;28;20029;-74
2022/09/24 03:43:49;;;;;;;17.73;11.07;;;15.30;99.90;;;;;;5073198;28;20033;-74
2022/09/24 03:46:16;;;;;;;16.15;10.95;;;15.30;99.90;;;;;;5073142;28;20017;-74
2022/09/24 03:48:42;;;;;;;18.45;12.82;;;15.30;99.90;;;;;;5074838;28;20035;-74
2022/09/24 03:51:12;;;;;;;14.55;11.55;;;15.30;99.90;;;;;;5075085;28;20027;-74
2022/09/24 03:53:38;;;;;;;16.52;11.48;;;15.30;99.90;;;;;;5064851;28;20037;-74
2022/09/24 03:56:06;;;;;;;14.95;10.98;;;15.30;99.90;;;;;;5059272;28;20029;-74
2022/09/24 03:58:37;;;;;;;18.15;11.38;;;15.30;99.90;;;;;;5059107;28;20389;-74
2022/09/24 04:01:06;;;;;;;17.27;11.23;;;15.30;99.90;;;;;;5063264;28;20035;-74
2022/09/24 04:03:32;;;;;;;13.38;11.38;;;15.30;99.90;;;;;;5067068;28;20029;-75
2022/09/24 04:05:58;;;;;;;14.02;11.45;;;15.20;99.90;;;;;;5066991;28;20016;-74
2022/09/24 04:08:24;;;;;;;16.63;12.05;;;15.20;99.90;;;;;;5063815;28;20025;-74
2022/09/24 04:10:50;;;;;;;15.88;11.10;;;15.30;99.90;;;;;;5068639;28;20025;-74
2022/09/24 04:13:17;;;;;;;18.58;11.35;;;15.20;99.90;;;;;;5067410;28;20013;-75
2022/09/24 04:15:43;;;;;;;17.27;11.07;;;15.30;99.90;;;;;;5070617;28;20049;-74
2022/09/24 04:18:10;;;;;;;19.90;11.25;;;15.30;99.90;;;;;;5071447;28;20440;-75
2022/09/24 04:20:36;;;;;;;17.08;10.88;;;15.20;99.90;;;;;;5072683;28;20020;-73
2022/09/24 04:23:02;;;;;;;23.10;12.60;;;15.30;99.90;;;;;;5075742;28;20029;-74
2022/09/24 04:25:29;;;;;;;16.08;11.27;;;15.20;99.90;;;;;;5073767;28;20028;-74
2022/09/24 04:28:01;;;;;;;20.77;12.38;;;15.20;99.90;;;;;;5060992;28;20025;-74
2022/09/24 04:30:29;;;;;;;19.27;11.88;;;15.30;99.90;;;;;;5061975;28;20385;-73
2022/09/24 04:32:59;;;;;;;20.05;11.02;;;15.30;99.90;;;;;;5063587;28;20033;-74
2022/09/24 04:35:25;;;;;;;13.52;10.57;;;15.30;99.90;;;;;;5064475;28;20025;-74
2022/09/24 04:37:51;;;;;;;19.88;11.00;;;15.20;99.90;;;;;;5071835;28;20048;-73
2022/09/24 04:40:17;;;;;;;17.02;10.77;;;15.20;99.90;;;;;;5071954;28;20078;-74
2022/09/24 04:42:45;;;;;;;23.45;12.35;;;15.30;99.90;;;;;;5067950;28;20036;-74
2022/09/24 04:45:12;;;;;;;13.60;10.95;;;15.30;99.90;;;;;;5075134;28;20385;-73
2022/09/24 04:47:39;;;;;;;20.50;11.02;;;15.20;99.90;;;;;;5071458;28;20469;-73
2022/09/24 04:50:07;;;;;;;15.90;11.95;;;15.20;99.90;;;;;;5075193;28;20020;-72
2022/09/24 04:52:34;;;;;;;21.80;12.65;;;15.30;99.90;;;;;;5075036;28;20025;-73
2022/09/24 04:55:00;;;;;;;17.15;11.68;;;15.30;99.90;;;;;;5079091;28;20050;-74
2022/09/24 04:57:27;;;;;;;14.45;11.77;;;15.30;99.90;;;;;;5077017;28;20028;-74
2022/09/24 04:59:53;;;;;;;16.67;11.63;;;15.30;99.90;;;;;;5059023;28;20024;-72
2022/09/24 05:02:19;;;;;;;17.48;11.52;;;15.20;99.90;;;;;;5061162;28;20032;-75
2022/09/24 05:04:46;;;;;;;16.10;12.15;;;15.20;99.90;;;;;;5062156;28;20096;-74
2022/09/24 05:07:13;;;;;;;16.73;11.38;;;15.30;99.90;;;;;;5063206;28;20448;-74
2022/09/24 05:09:38;;;;;;;20.85;11.40;;;15.20;99.90;;;;;;5063520;28;20021;-73
2022/09/24 05:12:04;;;;;;;23.15;11.88;;;15.20;99.90;;;;;;5066445;28;20025;-74
2022/09/24 05:14:30;;;;;;;15.57;11.00;;;15.20;99.90;;;;;;5068543;28;20036;-73
2022/09/24 05:16:56;;;;;;;13.75;10.60;;;15.20;99.90;;;;;;5067809;28;20369;-74
2022/09/24 05:19:22;;;;;;;14.88;11.18;;;15.20;99.90;;;;;;5073231;28;20031;-74
2022/09/24 05:21:48;;;;;;;16.38;11.10;;;15.20;99.90;;;;;;5071938;28;20031;-74
2022/09/24 05:24:14;;;;;;;13.35;10.93;;;15.30;99.90;;;;;;5076157;28;20396;-74
2022/09/24 05:29:25;;;;;;;17.67;11.32;;;15.20;99.90;;;;;;5078267;28;20456;-74
2022/09/24 05:31:51;;;;;;;15.93;10.77;;;15.30;99.90;;;;;;5072794;28;20025;-74
2022/09/24 05:34:17;;;;;;;13.35;10.90;;;15.30;99.90;;;;;;5057787;28;20400;-73
2022/09/24 05:36:43;;;;;;;16.88;11.80;;;15.20;99.90;;;;;;5063553;28;20135;-73
2022/09/24 05:39:10;;;;;;;11.95;10.20;;;15.30;99.90;;;;;;5075461;28;20465;-74
2022/09/24 05:41:37;;;;;;;17.15;11.10;;;15.20;99.90;;;;;;5075908;28;20051;-74
2022/09/24 05:44:04;;;;;;;17.95;10.73;;;15.30;99.90;;;;;;5073651;28;20023;-74
2022/09/24 05:46:30;;;;;;;18.50;11.80;;;15.30;99.90;;;;;;5091781;28;20412;-74
2022/09/24 05:48:56;;;;;;;16.05;11.02;;;15.30;99.90;;;;;;5068270;28;20020;-74
2022/09/24 05:51:22;;;;;;;15.38;10.93;;;15.20;99.90;;;;;;5071110;28;20033;-73
2022/09/24 05:53:49;;;;;;;16.77;10.40;;;15.30;99.90;;;;;;5073974;28;20369;-73
2022/09/24 05:56:15;;;;;;;14.35;10.63;;;15.30;99.90;;;;;;5075604;28;20119;-73
2022/09/24 05:58:41;;;;;;;12.88;10.80;;;15.30;99.90;;;;;;5078085;28;20081;-74
2022/09/24 06:01:07;;;;;;;16.27;10.25;;;15.30;99.90;;;;;;5072642;28;20025;-74
2022/09/24 06:03:32;;;;;;;14.00;10.23;;;15.30;99.90;;;;;;5059017;28;20507;-74
2022/09/24 06:06:00;;;;;;;19.65;11.30;;;15.30;99.90;;;;;;5063555;28;20017;-74
2022/09/24 06:08:28;;;;;;;17.60;10.07;;;15.30;99.90;;;;;;5062266;28;20017;-74
2022/09/24 06:11:04;;;;;;;12.88;9.60;;;15.30;99.90;;;;;;5063234;28;20021;-73
2022/09/24 06:13:32;;;;;;;12.10;9.55;;;15.30;99.90;;;;;;5065359;28;20134;-74
2022/09/24 06:16:09;;;;;;;16.50;10.13;;;15.30;99.90;;;;;;5069123;28;20025;-73
2022/09/24 06:18:37;;;;;;;15.32;10.65;;;15.30;99.90;;;;;;5076330;28;20020;-74
2022/09/24 06:21:06;;;;;;;14.25;9.68;;;15.30;99.90;;;;;;5074566;28;20020;-73
2022/09/24 06:23:35;;;;;;;14.02;9.88;;;15.30;99.90;;;;;;5076619;28;20020;-74
2022/09/24 06:26:02;;;;;;;16.05;9.63;;;15.40;99.90;;;;;;5077178;28;20024;-74
2022/09/24 06:28:28;;;;;;;14.20;9.73;;;15.40;99.90;;;;;;5065215;28;20496;-74
2022/09/24 06:30:54;;;;;;;10.88;8.65;;;15.40;99.90;;;;;;5061561;28;20086;-73
2022/09/24 06:33:20;;;;;;;14.88;9.57;;;15.40;99.90;;;;;;5064682;28;20078;-73
2022/09/24 06:35:47;;;;;;;12.90;9.43;;;15.50;99.90;;;;;;5071754;28;20142;-74
2022/09/24 06:38:15;;;;;;;15.07;9.00;;;15.60;99.90;;;;;;5068280;28;20019;-73
2022/09/24 06:40:47;;;;;;;17.58;9.05;;;15.60;99.90;;;;;;5067583;28;20043;-73
2022/09/24 06:43:14;;;;;;;13.27;9.80;;;15.60;99.90;;;;;;5070395;28;20029;-74
2022/09/24 06:45:43;;;;;;;12.18;9.35;;;15.70;99.90;;;;;;5069129;28;20033;-73
2022/09/24 06:48:13;;;;;;;15.07;9.50;;;15.60;99.90;;;;;;5072601;28;20025;-73
2022/09/24 06:50:42;;;;;;;17.53;9.37;;;15.70;99.90;;;;;;5074319;28;20106;-74
2022/09/24 06:53:09;;;;;;;14.13;9.23;;;15.70;99.90;;;;;;5077325;28;20025;-73
2022/09/24 06:55:37;;;;;;;10.70;8.60;;;15.60;99.90;;;;;;5077295;28;20024;-73
2022/09/24 06:58:14;;;;;;;16.45;9.55;;;15.70;99.90;;;;;;5058567;28;20027;-73
2022/09/24 07:00:41;;;;;;;12.23;8.13;;;15.70;99.90;;;;;;5061605;28;20032;-74
2022/09/24 07:03:14;;;;;;;11.77;8.15;;;15.70;99.90;;;;;;5065445;28;20535;-73
2022/09/24 07:05:40;;;;;;;9.98;8.27;;;15.70;99.90;;;;;;5067682;28;20089;-74
2022/09/24 07:08:05;;;;;;;13.52;8.10;;;15.80;99.90;;;;;;5061959;28;20074;-75
2022/09/24 07:10:31;;;;;;;10.95;8.50;;;15.80;99.90;;;;;;5066008;28;20052;-74
2022/09/24 07:12:57;;;;;;;10.65;8.50;;;15.90;99.90;;;;;;5066874;28;20081;-74
2022/09/24 07:15:23;;;;;;;10.32;8.43;;;15.90;99.90;;;;;;5065983;28;20032;-73
2022/09/24 07:17:53;;;;;;;12.85;8.35;;;16.00;99.90;;;;;;5070271;28;20044;-73
2022/09/24 07:20:19;;;;;;;12.05;8.48;;;16.10;99.90;;;;;;5076343;28;20051;-73
2022/09/24 07:22:45;;;;;;;10.02;8.38;;;16.20;99.90;;;;;;5071164;28;20108;-72
2022/09/24 07:25:11;;;;;;;12.32;9.00;;;16.10;99.90;;;;;;5074277;28;20095;-72
2022/09/24 07:27:38;;;;;;;10.25;8.25;;;16.10;99.90;;;;;;5067899;28;20044;-73
2022/09/24 07:30:08;;;;;;;15.60;9.15;;;16.10;99.90;;;;;;5063898;28;20887;-73
2022/09/24 07:32:34;;;;;;;15.30;8.90;;;16.10;99.90;;;;;;5061041;28;20021;-73
2022/09/24 07:35:00;;;;;;;18.77;10.85;;;16.20;99.90;;;;;;5075432;28;20395;-73
2022/09/24 07:37:26;;;;;;;12.95;9.35;;;16.30;99.90;;;;;;5065396;28;20077;-73
2022/09/24 07:39:51;;;;;;;15.60;10.45;;;16.40;99.90;;;;;;5069600;28;20032;-72
2022/09/24 07:42:18;;;;;;;16.13;10.10;;;16.50;99.90;;;;;;5067832;28;20527;-73
2022/09/24 07:44:44;;;;;;;14.10;9.57;;;16.70;99.90;;;;;;5070265;28;20154;-73
2022/09/24 07:47:10;;;;;;;14.52;9.73;;;16.70;99.90;;;;;;5071435;28;20016;-72
2022/09/24 07:49:37;;;;;;;13.10;9.00;;;16.80;99.90;;;;;;5076490;28;20547;-73
2022/09/24 07:52:03;;;;;;;12.68;8.30;;;16.90;99.90;;;;;;5073912;28;20431;-74
2022/09/24 07:54:30;;;;;;;12.02;8.30;;;16.80;99.90;;;;;;5061913;28;20029;-73
2022/09/24 07:56:56;;;;;;;12.65;8.75;;;16.80;99.90;;;;;;5070782;28;20369;-73
2022/09/24 07:59:22;;;;;;;14.38;8.27;;;16.80;99.90;;;;;;5077574;28;20093;-74
2022/09/24 08:01:47;;;;;;;15.70;8.57;;;16.80;99.90;;;;;;5079731;28;20024;-74
2022/09/24 08:04:13;;;;;;;13.07;7.80;;;16.90;99.90;;;;;;5079764;28;20028;-73
2022/09/24 08:06:39;;;;;;;12.25;7.88;;;17.00;99.90;;;;;;5082127;28;20016;-74
2022/09/24 08:09:05;;;;;;;16.45;7.90;;;17.20;99.90;;;;;;5066554;28;20025;-74
2022/09/24 08:11:32;;;;;;;13.65;7.40;;;17.10;99.90;;;;;;5064948;28;20682;-74
2022/09/24 08:13:59;;;;;;;9.82;7.53;;;17.10;99.90;;;;;;5068518;28;20021;-73
2022/09/24 08:16:25;;;;;;;10.15;6.90;;;17.10;99.90;;;;;;5066718;28;20594;-74
2022/09/24 08:18:52;;;;;;;8.07;6.30;;;17.10;99.90;;;;;;5071378;28;20229;-74
2022/09/24 08:21:18;;;;;;;7.65;5.97;;;17.20;99.90;;;;;;5071580;28;20115;-73
2022/09/24 08:23:44;;;;;;;7.00;5.43;;;17.40;99.90;;;;;;5083160;28;20047;-75
2022/09/24 08:26:12;;;;;;;10.88;6.25;;;17.50;99.90;;;;;;5079524;28;20506;-75
2022/09/24 08:28:42;;;;;;;6.78;5.80;;;17.60;99.90;;;;;;5075376;28;20025;-74
2022/09/24 08:31:11;;;;;;;11.48;6.38;;;17.60;99.90;;;;;;5076528;28;20017;-76
2022/09/24 08:33:37;;;;;;;10.35;6.88;;;17.50;99.90;;;;;;5069686;28;20024;-75
2022/09/24 08:36:06;;;;;;;9.48;7.53;;;17.40;99.90;;;;;;5075692;28;20084;-76
2022/09/24 08:38:32;;;;;;;10.43;7.85;;;17.10;99.90;;;;;;5080533;28;20064;-76
2022/09/24 08:41:12;;;;;;;14.50;7.05;;;16.90;99.90;;;;;;5073652;28;20445;-76
2022/09/24 08:44:13;;;;;;;12.75;7.63;;;16.60;99.90;;;;;;5070411;28;20092;-75
2022/09/24 08:49:48;;;;;;;15.13;8.13;;;16.30;99.90;;;;;;5075053;28;20044;-75
2022/09/24 08:52:31;;;;;;;11.90;8.50;;;16.30;99.90;;;;;;5072955;28;20412;-75
2022/09/24 08:55:03;;;;;;;14.05;7.80;;;16.30;99.90;;;;;;5079327;28;20028;-76
2022/09/24 08:57:36;;;;;;;12.27;7.93;;;16.40;99.90;;;;;;5080436;28;20024;-75
2022/09/24 09:00:02;;;;;;;9.13;7.10;;;16.60;99.90;;;;;;5081668;28;20032;-75
2022/09/24 09:03:07;;;;;;;11.02;8.02;;;16.80;99.90;;;;;;5077754;28;20021;-76
2022/09/24 09:06:08;;;;;;;9.93;6.45;;;17.10;99.90;;;;;;5079325;28;20507;-76
2022/09/24 09:08:44;;;;;;;5.97;5.38;;;17.40;99.90;;;;;;5078170;28;20024;-76
2022/09/24 09:11:13;;;;;;;16.30;6.18;;;17.50;99.90;;;;;;5060890;28;20021;-76
2022/09/24 09:13:46;;;;;;;8.57;5.68;;;17.50;99.90;;;;;;5075223;28;20086;-76
2022/09/24 09:16:23;;;;;;;10.90;5.93;;;17.50;99.90;;;;;;5073833;28;20036;-76
2022/09/24 09:18:52;;;;;;;6.90;5.97;;;17.50;99.90;;;;;;5075319;28;20440;-76
2022/09/24 09:21:36;;;;;;;8.50;5.90;;;17.50;99.90;;;;;;5079012;28;20078;-77
2022/09/24 09:24:03;;;;;;;7.15;4.43;;;17.60;99.90;;;;;;5067225;28;20116;-76
2022/09/24 09:26:30;;;;;;;7.72;4.82;;;17.80;99.90;;;;;;5078225;28;20032;-76
2022/09/24 09:29:01;;;;;;;6.90;5.05;;;17.90;99.90;;;;;;5059475;28;20473;-76
2022/09/24 09:31:52;;;;;;;7.57;4.97;;;17.90;99.90;;;;;;5063238;28;20028;-76
2022/09/24 09:34:36;;;;;;;6.20;4.47;;;18.00;99.90;;;;;;5069777;28;20396;-77
2022/09/24 09:37:13;;;;;;;11.60;4.35;;;17.80;99.90;;;;;;5066450;28;20056;-78
2022/09/24 09:40:09;;;;;;;6.22;4.05;;;17.90;99.90;;;;;;5071466;28;20116;-77
2022/09/24 09:42:38;;;;;;;10.30;4.43;;;18.20;99.90;;;;;;5071444;28;20071;-77
2022/09/24 09:45:17;;;;;;;5.75;3.95;;;18.30;99.90;;;;;;5073352;28;20394;-76
2022/09/24 09:47:48;;;;;;;5.82;3.75;;;18.50;99.90;;;;;;5071586;28;20029;-76
2022/09/24 09:50:19;;;;;;;;;;;18.60;99.90;;;;;;5078984;28;20082;-77
2022/09/24 09:52:46;;;;;;;7.95;3.97;;;18.90;99.90;;;;;;5074108;28;19968;-76
2022/09/24 09:55:36;;;;;;;4.07;3.15;;;19.10;99.90;;;;;;5064924;28;20459;-76
2022/09/24 09:58:14;;;;;;;6.90;3.67;;;19.20;99.90;;;;;;5058806;28;20032;-76
2022/09/24 10:00:40;;;;;;;5.72;3.03;;;19.00;99.90;;;;;;5059135;28;20123;-77
2022/09/24 10:03:21;;;;;;;4.43;2.97;;;18.70;99.90;;;;;;5060627;28;20017;-76
2022/09/24 10:05:54;;;;;;;;;;;18.70;99.90;;;;;;5074458;28;20052;-76
2022/09/24 10:08:24;;;;;;;4.22;2.60;;;18.80;99.90;;;;;;5063289;28;19916;-76
2022/09/24 10:10:55;;;;;;;4.30;3.83;;;18.90;99.90;;;;;;5063942;28;20025;-76
2022/09/24 10:13:21;;;;;;;6.45;3.28;;;18.90;99.90;;;;;;5065316;28;20527;-76
2022/09/24 10:15:53;;;;;;;4.20;3.42;;;19.10;99.90;;;;;;5070681;28;20043;-75
2022/09/24 10:18:27;;;;;;;8.07;2.85;;;19.30;99.90;;;;;;5076000;28;20023;-75
2022/09/24 10:20:54;;;;;;;5.65;2.53;;;19.40;99.90;;;;;;5076511;28;20028;-77
2022/09/24 10:23:23;;;;;;;4.20;2.65;;;19.20;99.90;;;;;;5073147;28;20025;-74
2022/09/24 10:25:53;;;;;;;2.90;2.05;;;19.10;99.90;;;;;;5064832;28;20023;-76
2022/09/24 10:31:11;;;;;;;3.63;2.28;;;19.20;99.90;;;;;;5072697;28;20038;-76
2022/09/24 10:33:39;;;;;;;4.25;2.50;;;19.20;99.90;;;;;;5079966;28;20508;-76
2022/09/24 10:36:23;;;;;;;6.70;2.40;;;19.30;99.90;;;;;;5076867;28;20040;-76
2022/09/24 10:39:06;;;;;;;4.80;3.13;;;19.50;99.90;;;;;;5067521;28;20100;-76
2022/09/24 10:41:32;;;;;;;8.43;2.20;;;19.60;99.90;;;;;;5060620;28;20405;-76
2022/09/24 10:44:03;;;;;;;5.88;2.55;;;19.80;99.90;;;;;;5060309;28;20021;-77
2022/09/24 10:46:59;;;;;;;3.45;1.92;;;19.90;99.90;;;;;;5063602;28;20025;-76
2022/09/24 10:49:52;;;;;;;3.33;2.33;;;19.60;99.90;;;;;;5066118;28;20032;-78
2022/09/24 10:52:46;;;;;;;6.43;2.67;;;19.20;99.90;;;;;;5046762;28;20048;-76
2022/09/24 10:55:25;;;;;;;5.45;2.53;;;19.10;99.90;;;;;;5067460;28;20053;-77
2022/09/24 10:58:08;;;;;;;7.10;2.00;;;19.20;99.90;;;;;;5062750;28;20028;-78
2022/09/24 11:00:34;;;;;;;3.33;2.53;;;19.20;99.90;;;;;;5068334;28;20017;-78
2022/09/24 11:03:18;;;;;;;8.13;2.60;;;19.30;99.90;;;;;;5074368;28;20035;-78
2022/09/24 11:06:04;;;;;;;3.80;2.17;;;19.30;99.90;;;;;;5075581;28;20481;-77
2022/09/24 11:09:02;;;;;;;5.55;2.33;;;19.30;99.90;;;;;;5076236;28;20063;-77
2022/09/24 11:11:59;;;;;;;4.85;2.55;;;19.40;99.90;;;;;;5064392;28;20033;-77
2022/09/24 11:14:50;;;;;;;6.60;2.28;;;19.70;99.90;;;;;;5059246;28;20036;-76
2022/09/24 11:17:30;;;;;;;3.70;2.30;;;20.10;99.90;;;;;;5060212;28;20025;-77
2022/09/24 11:20:21;;;;;;;6.85;2.53;;;20.30;99.90;;;;;;5072916;28;20115;-77
2022/09/24 11:22:54;;;;;;;4.72;1.90;;;20.50;99.90;;;;;;5075328;28;20028;-76
2022/09/24 11:25:25;;;;;;;3.78;1.48;;;20.50;99.90;;;;;;5067868;28;20053;-77
2022/09/24 11:28:07;;;;;;;4.40;2.33;;;20.50;99.90;;;;;;5069569;28;20021;-77
2022/09/24 11:30:53;;;;;;;4.35;2.05;;;20.30;99.90;;;;;;5065821;28;20047;-78
2022/09/24 11:33:25;;;;;;;3.17;2.17;;;20.30;99.90;;;;;;5073599;28;20055;-77
2022/09/24 11:36:25;;;;;;;4.47;2.10;;;20.10;99.90;;;;;;5075447;28;20038;-76
2022/09/24 11:39:02;;;;;;;3.53;2.10;;;19.90;99.90;;;;;;5068497;28;20025;-76
2022/09/24 11:41:36;;;;;;;3.75;1.92;;;19.90;99.90;;;;;;5060258;28;20035;-76
2022/09/24 11:44:29;;;;;;;3.78;2.47;;;20.10;99.90;;;;;;5060363;28;20376;-77
2022/09/24 11:46:55;;;;;;;7.28;3.33;;;20.30;99.90;;;;;;5066041;28;20060;-77
2022/09/24 11:49:39;;;;;;;2.47;1.75;;;20.80;99.90;;;;;;5063646;28;20029;-77
2022/09/24 11:52:09;;;;;;;4.70;1.92;;;21.20;99.90;;;;;;5069244;28;20029;-77
2022/09/24 11:54:49;;;;;;;5.50;2.17;;;21.60;99.90;;;;;;5073106;28;20025;-77
2022/09/24 11:57:23;;;;;;;3.28;1.83;;;21.70;99.90;;;;;;5071593;28;20262;-77
2022/09/24 12:00:06;;;;;;;4.10;2.08;;;21.40;99.90;;;;;;5075525;28;20075;-76
2022/09/24 12:02:56;;;;;;;3.50;2.03;;;21.00;99.90;;;;;;5076092;28;20059;-80
2022/09/24 12:05:54;;;;;;;5.78;1.73;;;20.50;99.90;;;;;;5065351;28;20048;-79
2022/09/24 12:08:28;;;;;;;4.07;1.95;;;20.10;99.90;;;;;;5071596;28;20021;-78
2022/09/24 12:11:23;;;;;;;2.72;1.63;;;19.80;99.90;;;;;;5064950;28;20044;-80
2022/09/24 12:13:58;;;;;;;4.38;1.95;;;19.60;99.90;;;;;;5071306;28;20396;-79
2022/09/24 12:16:27;;;;;;;2.35;1.60;;;19.40;99.90;;;;;;5063142;28;20478;-79
2022/09/24 12:19:11;;;;;;;6.82;2.58;;;19.30;99.90;;;;;;5059933;28;20033;-79
2022/09/24 12:21:40;;;;;;;3.65;1.80;;;19.20;99.90;;;;;;5060006;28;20028;-81
2022/09/24 12:24:28;;;;;;;7.32;2.10;;;19.10;99.90;;;;;;5057760;28;20407;-80
2022/09/24 12:26:57;;;;;;;4.47;2.13;;;19.10;99.90;;;;;;5059999;28;20064;-79
2022/09/24 12:32:58;;;;;;;4.30;2.25;;;19.00;99.90;;;;;;5060834;28;20033;-78
2022/09/24 12:36:07;;;;;;;6.45;2.22;;;18.90;99.90;;;;;;5073438;28;20029;-77
2022/09/24 12:38:35;;;;;;;3.80;1.98;;;18.90;99.90;;;;;;5070182;28;20568;-79
2022/09/24 12:41:17;;;;;;;5.20;2.40;;;18.90;99.90;;;;;;5061971;28;20067;-79
2022/09/24 12:44:04;;;;;;;4.03;2.15;;;18.90;99.90;;;;;;5074572;28;20420;-79
2022/09/24 12:46:49;;;;;;;4.95;2.30;;;18.80;99.90;;;;;;5061463;28;20009;-78
2022/09/24 12:49:24;;;;;;;3.90;2.30;;;18.80;99.90;;;;;;5062940;28;20021;-79
2022/09/24 12:52:14;;;;;;;3.45;2.17;;;18.80;99.90;;;;;;5061488;28;20116;-79
2022/09/24 12:54:40;;;;;;;3.75;2.30;;;18.90;99.90;;;;;;5065581;28;20042;-84
2022/09/24 12:57:12;;;;;;;4.68;2.42;;;18.90;99.90;;;;;;5061519;28;20025;-80
2022/09/24 13:00:01;;;;;;;3.50;2.42;;;18.90;99.90;;;;;;5063519;28;20024;-81
2022/09/24 13:02:46;;;;;;;3.50;2.13;;;19.10;99.90;;;;;;5067442;28;20036;-80
2022/09/24 13:05:26;;;;;;;4.22;1.80;;;19.30;99.90;;;;;;5075094;28;20020;-80
2022/09/24 13:08:07;;;;;;;8.90;3.53;;;19.20;99.90;;;;;;5076646;28;20070;-81
2022/09/24 13:10:35;;;;;;;4.38;1.95;;;19.40;99.90;;;;;;5067162;28;20025;-81
2022/09/24 13:13:13;;;;;;;3.38;1.92;;;19.50;99.90;;;;;;5072459;28;20096;-79
2022/09/24 13:15:41;;;;;;;3.47;1.85;;;19.60;99.90;;;;;;5076743;28;20052;-81
2022/09/24 13:18:12;;;;;;;6.10;1.90;;;19.60;99.90;;;;;;5078257;28;20044;-79